createdAt,value
2022-11-01T00:02:00.556Z,15.20
2022-11-01T00:04:27.480Z,15.20
2022-11-01T00:06:54.294Z,15.10
2022-11-01T00:09:21.400Z,15.20
2022-11-01T00:11:48.332Z,15.10
2022-11-01T00:14:17.286Z,15.10
2022-11-01T00:16:44.163Z,15.00
2022-11-01T00:19:11.202Z,15.00
2022-11-01T00:21:38.353Z,15.00
2022-11-01T00:24:05.562Z,15.00
2022-11-01T00:26:32.367Z,14.90
2022-11-01T00:28:59.132Z,14.90
2022-11-01T00:31:26.493Z,14.90
2022-11-01T00:33:53.458Z,14.90
2022-11-01T00:36:20.220Z,14.90
2022-11-01T00:38:53.304Z,14.90
2022-11-01T00:41:21.062Z,14.90
2022-11-01T00:43:48.676Z,14.80
2022-11-01T00:46:15.887Z,14.90
2022-11-01T00:48:42.743Z,14.80
2022-11-01T00:51:09.540Z,14.80
2022-11-01T00:53:36.522Z,14.80
2022-11-01T00:56:05.254Z,14.80
2022-11-01T00:58:32.275Z,14.80
2022-11-01T01:00:59.577Z,14.80
2022-11-01T01:03:26.569Z,14.80
2022-11-01T01:05:54.212Z,14.80
2022-11-01T01:08:21.701Z,14.60
2022-11-01T01:10:48.677Z,14.70
2022-11-01T01:13:15.545Z,14.70
2022-11-01T01:15:42.596Z,14.60
2022-11-01T01:18:10.093Z,14.60
2022-11-01T01:20:37.154Z,14.60
2022-11-01T01:23:04.475Z,14.60
2022-11-01T01:25:31.662Z,14.70
2022-11-01T01:27:58.495Z,14.60
2022-11-01T01:30:25.398Z,14.60
2022-11-01T01:32:52.216Z,14.50
2022-11-01T01:35:19.046Z,14.50
2022-11-01T01:37:45.875Z,14.60
2022-11-01T01:40:12.634Z,14.50
2022-11-01T01:42:41.981Z,14.50
2022-11-01T01:45:19.384Z,14.50
2022-11-01T01:47:52.084Z,14.40
2022-11-01T01:50:59.944Z,14.50
2022-11-01T01:53:31.464Z,14.40
2022-11-01T01:56:02.941Z,14.40
2022-11-01T01:58:33.201Z,14.30
2022-11-01T02:01:00.722Z,14.40
2022-11-01T02:03:31.711Z,14.30
2022-11-01T02:06:21.834Z,14.30
2022-11-01T02:08:53.192Z,14.30
2022-11-01T02:11:20.888Z,14.20
2022-11-01T02:13:48.058Z,14.30
2022-11-01T02:16:35.487Z,14.20
2022-11-01T02:19:21.071Z,14.20
2022-11-01T02:22:06.333Z,14.20
2022-11-01T02:24:39.073Z,14.20
2022-11-01T02:27:20.602Z,14.20
2022-11-01T02:29:47.273Z,14.20
2022-11-01T02:32:22.454Z,14.10
2022-11-01T02:35:10.097Z,14.20
2022-11-01T02:38:03.302Z,14.20
2022-11-01T02:40:43.248Z,14.10
2022-11-01T02:43:18.757Z,14.00
2022-11-01T02:45:50.253Z,14.10
2022-11-01T02:48:21.868Z,14.10
2022-11-01T02:50:57.307Z,14.00
2022-11-01T02:53:24.198Z,14.00
2022-11-01T02:55:54.230Z,14.10
2022-11-01T02:58:28.765Z,14.00
2022-11-01T03:00:57.196Z,14.00
2022-11-01T03:03:31.450Z,14.00
2022-11-01T03:06:01.158Z,14.00
2022-11-01T03:08:35.328Z,14.00
2022-11-01T03:11:13.447Z,13.90
2022-11-01T03:14:08.320Z,13.90
2022-11-01T03:17:00.607Z,13.90
2022-11-01T03:19:49.250Z,13.90
2022-11-01T03:22:28.857Z,13.90
2022-11-01T03:25:30.284Z,13.80
2022-11-01T03:28:00.201Z,13.80
2022-11-01T03:30:29.514Z,13.70
2022-11-01T03:32:57.761Z,13.80
2022-11-01T03:35:37.149Z,13.80
2022-11-01T03:38:10.063Z,13.80
2022-11-01T03:40:41.309Z,13.70
2022-11-01T03:43:12.569Z,13.70
2022-11-01T03:45:41.088Z,13.70
2022-11-01T03:48:08.246Z,13.70
2022-11-01T03:50:35.204Z,13.70
2022-11-01T03:53:02.299Z,13.70
2022-11-01T03:55:29.107Z,13.70
2022-11-01T03:57:57.729Z,13.70
2022-11-01T04:00:28.948Z,13.70
2022-11-01T04:02:58.189Z,13.70
2022-11-01T04:05:27.615Z,13.70
2022-11-01T04:07:55.268Z,13.70
2022-11-01T04:10:23.956Z,13.70
2022-11-01T04:12:51.935Z,13.70
2022-11-01T04:15:38.923Z,13.60
2022-11-01T04:18:27.365Z,13.60
2022-11-01T04:20:54.351Z,13.60
2022-11-01T04:23:21.254Z,13.60
2022-11-01T04:25:48.137Z,13.60
2022-11-01T04:28:15.958Z,13.60
2022-11-01T04:30:43.921Z,13.50
2022-11-01T04:33:11.091Z,13.50
2022-11-01T04:35:40.472Z,13.50
2022-11-01T04:38:08.766Z,13.40
2022-11-01T04:40:35.580Z,13.40
2022-11-01T04:43:02.364Z,13.50
2022-11-01T04:45:29.158Z,13.40
2022-11-01T04:48:15.986Z,13.40
2022-11-01T04:50:43.321Z,13.40
2022-11-01T04:53:10.663Z,13.40
2022-11-01T04:55:37.895Z,13.30
2022-11-01T04:58:06.640Z,13.30
2022-11-01T05:00:34.445Z,13.40
2022-11-01T05:03:08.355Z,13.40
2022-11-01T05:05:35.490Z,13.30
2022-11-01T05:08:03.536Z,13.30
2022-11-01T05:10:30.966Z,13.30
2022-11-01T05:12:57.882Z,13.30
2022-11-01T05:15:25.273Z,13.30
2022-11-01T05:17:52.089Z,13.30
2022-11-01T05:20:19.512Z,13.30
2022-11-01T05:22:46.350Z,13.30
2022-11-01T05:25:13.116Z,13.30
2022-11-01T05:27:39.867Z,13.30
2022-11-01T05:30:08.047Z,13.20
2022-11-01T05:32:35.996Z,13.20
2022-11-01T05:35:02.921Z,13.20
2022-11-01T05:37:29.687Z,13.20
2022-11-01T05:39:56.503Z,13.20
2022-11-01T05:42:23.274Z,13.20
2022-11-01T05:44:50.015Z,13.20
2022-11-01T05:47:17.310Z,13.20
2022-11-01T05:49:44.484Z,13.20
2022-11-01T05:52:11.273Z,13.20
2022-11-01T05:54:38.001Z,13.20
2022-11-01T05:57:06.073Z,13.20
2022-11-01T05:59:32.879Z,13.30
2022-11-01T06:01:59.855Z,13.20
2022-11-01T06:04:26.693Z,13.10
2022-11-01T06:06:53.506Z,13.10
2022-11-01T06:09:20.281Z,13.10
2022-11-01T06:11:47.026Z,13.20
2022-11-01T06:14:13.959Z,13.20
2022-11-01T06:16:40.709Z,13.10
2022-11-01T06:19:08.782Z,13.20
2022-11-01T06:21:35.560Z,13.20
2022-11-01T06:24:03.046Z,13.30
2022-11-01T06:26:30.280Z,13.20
2022-11-01T06:28:59.936Z,13.30
2022-11-01T06:31:26.735Z,13.20
2022-11-01T06:33:53.597Z,13.30
2022-11-01T06:36:20.472Z,13.20
2022-11-01T06:38:47.229Z,13.40
2022-11-01T06:41:14.609Z,13.40
2022-11-01T06:43:42.161Z,13.30
2022-11-01T06:46:09.046Z,13.40
2022-11-01T06:48:35.767Z,13.40
2022-11-01T06:51:04.287Z,13.40
2022-11-01T06:53:31.523Z,13.40
2022-11-01T06:56:01.598Z,13.50
2022-11-01T06:58:28.703Z,13.50
2022-11-01T07:00:55.600Z,13.50
2022-11-01T07:03:22.442Z,13.50
2022-11-01T07:05:50.220Z,13.50
2022-11-01T07:08:17.063Z,13.50
2022-11-01T07:10:44.351Z,13.50
2022-11-01T07:13:13.351Z,13.50
2022-11-01T07:15:40.460Z,13.60
2022-11-01T07:18:08.570Z,13.70
2022-11-01T07:20:41.573Z,13.60
2022-11-01T07:23:17.073Z,13.60
2022-11-01T07:25:44.066Z,13.70
2022-11-01T07:28:11.827Z,13.70
2022-11-01T07:30:39.294Z,13.70
2022-11-01T07:33:06.473Z,13.70
2022-11-01T07:35:34.717Z,13.80
2022-11-01T07:38:04.024Z,13.90
2022-11-01T07:40:35.463Z,13.90
2022-11-01T07:43:02.740Z,13.90
2022-11-01T07:45:31.288Z,14.00
2022-11-01T07:48:02.874Z,14.00
2022-11-01T07:50:31.489Z,14.10
2022-11-01T07:53:02.875Z,14.20
2022-11-01T07:55:29.813Z,14.10
2022-11-01T07:57:56.673Z,14.10
2022-11-01T08:00:24.116Z,14.10
2022-11-01T08:02:51.511Z,14.20
2022-11-01T08:05:18.636Z,14.30
2022-11-01T08:07:46.593Z,14.20
2022-11-01T08:10:13.509Z,14.30
2022-11-01T08:12:40.294Z,14.40
2022-11-01T08:15:07.706Z,14.40
2022-11-01T08:17:34.728Z,14.40
2022-11-01T08:20:01.881Z,14.50
2022-11-01T08:22:28.710Z,14.50
2022-11-01T08:24:55.613Z,14.60
2022-11-01T08:27:22.354Z,14.60
2022-11-01T08:29:49.153Z,14.60
2022-11-01T08:32:20.961Z,14.70
2022-11-01T08:34:48.289Z,14.70
2022-11-01T08:37:15.186Z,14.80
2022-11-01T08:39:41.994Z,14.80
2022-11-01T08:42:09.844Z,14.80
2022-11-01T08:44:36.551Z,14.90
2022-11-01T08:47:03.296Z,14.90
2022-11-01T08:49:30.149Z,15.00
2022-11-01T08:51:56.945Z,15.00
2022-11-01T08:54:23.789Z,15.10
2022-11-01T08:56:50.540Z,15.20
2022-11-01T08:59:17.456Z,15.30
2022-11-01T09:01:44.401Z,15.30
2022-11-01T09:04:12.375Z,15.30
2022-11-01T09:06:39.171Z,15.50
2022-11-01T09:09:05.954Z,15.40
2022-11-01T09:11:32.777Z,15.50
2022-11-01T09:13:59.771Z,15.60
2022-11-01T09:16:26.744Z,15.60
2022-11-01T09:18:53.616Z,15.80
2022-11-01T09:21:20.369Z,15.90
2022-11-01T09:23:47.325Z,16.00
2022-11-01T09:26:14.231Z,16.00
2022-11-01T09:28:41.166Z,16.10
2022-11-01T09:31:20.769Z,16.30
2022-11-01T09:33:48.310Z,16.30
2022-11-01T09:36:15.061Z,16.40
2022-11-01T09:38:41.900Z,16.60
2022-11-01T09:41:35.642Z,16.60
2022-11-01T09:44:05.945Z,16.70
2022-11-01T09:46:42.494Z,16.80
2022-11-01T09:49:11.470Z,16.80
2022-11-01T09:51:39.028Z,16.80
2022-11-01T09:54:08.411Z,17.00
2022-11-01T09:57:05.577Z,17.00
2022-11-01T10:00:01.122Z,17.10
2022-11-01T10:02:46.184Z,17.20
2022-11-01T10:05:30.817Z,17.30
2022-11-01T10:08:00.586Z,17.40
2022-11-01T10:10:58.391Z,17.50
2022-11-01T10:13:37.149Z,17.60
2022-11-01T10:16:09.798Z,17.60
2022-11-01T10:19:11.192Z,17.70
2022-11-01T10:21:49.770Z,18.00
2022-11-01T10:24:37.927Z,18.00
2022-11-01T10:27:36.163Z,18.20
2022-11-01T10:30:13.493Z,18.30
2022-11-01T10:32:40.315Z,18.20
2022-11-01T10:35:17.508Z,18.30
2022-11-01T10:38:19.386Z,18.40
2022-11-01T10:41:11.242Z,18.60
2022-11-01T10:43:44.133Z,18.60
2022-11-01T10:46:18.091Z,18.70
2022-11-01T10:48:49.438Z,18.90
2022-11-01T10:51:22.880Z,18.80
2022-11-01T10:53:55.894Z,18.90
2022-11-01T10:56:37.276Z,18.90
2022-11-01T10:59:10.431Z,19.00
2022-11-01T11:01:42.779Z,19.00
2022-11-01T11:04:15.058Z,19.10
2022-11-01T11:06:42.672Z,19.20
2022-11-01T11:09:21.224Z,19.20
2022-11-01T11:11:49.402Z,19.40
2022-11-01T11:14:17.982Z,19.40
2022-11-01T11:16:55.759Z,19.50
2022-11-01T11:19:30.676Z,19.60
2022-11-01T11:21:58.825Z,19.60
2022-11-01T11:24:45.941Z,19.70
2022-11-01T11:27:23.713Z,19.70
2022-11-01T11:29:53.918Z,19.70
2022-11-01T11:32:31.952Z,19.80
2022-11-01T11:35:00.095Z,19.80
2022-11-01T11:37:31.908Z,19.90
2022-11-01T11:40:21.642Z,19.90
2022-11-01T11:42:50.641Z,20.00
2022-11-01T11:45:29.897Z,20.10
2022-11-01T11:48:14.124Z,20.10
2022-11-01T11:50:41.210Z,20.20
2022-11-01T11:53:35.329Z,20.10
2022-11-01T11:56:08.262Z,20.30
2022-11-01T11:58:48.413Z,20.20
2022-11-01T12:01:21.818Z,20.30
2022-11-01T12:04:00.044Z,20.20
2022-11-01T12:06:28.829Z,20.30
2022-11-01T12:08:57.981Z,20.30
2022-11-01T12:11:26.329Z,20.40
2022-11-01T12:14:07.450Z,20.40
2022-11-01T12:16:41.253Z,20.50
2022-11-01T12:19:31.711Z,20.60
2022-11-01T12:22:01.348Z,20.70
2022-11-01T12:24:42.228Z,20.70
2022-11-01T12:27:19.985Z,20.80
2022-11-01T12:29:59.717Z,20.80
2022-11-01T12:32:28.902Z,20.80
2022-11-01T12:35:00.784Z,20.80
2022-11-01T12:37:52.627Z,20.70
2022-11-01T12:40:33.435Z,20.80
2022-11-01T12:43:20.068Z,20.70
2022-11-01T12:45:59.265Z,20.70
2022-11-01T12:48:31.750Z,20.70
2022-11-01T12:51:21.525Z,20.80
2022-11-01T12:54:01.260Z,20.90
2022-11-01T12:56:28.060Z,20.90
2022-11-01T12:58:56.697Z,20.90
2022-11-01T13:01:40.775Z,21.00
2022-11-01T13:04:20.831Z,21.00
2022-11-01T13:07:07.643Z,21.00
2022-11-01T13:09:46.361Z,20.90
2022-11-01T13:12:17.121Z,20.90
2022-11-01T13:15:07.343Z,20.70
2022-11-01T13:18:01.025Z,20.70
2022-11-01T13:20:54.658Z,20.60
2022-11-01T13:23:49.385Z,20.60
2022-11-01T13:26:27.830Z,20.60
2022-11-01T13:29:07.823Z,20.50
2022-11-01T13:31:37.353Z,20.50
2022-11-01T13:34:30.993Z,20.50
2022-11-01T13:37:06.832Z,20.60
2022-11-01T13:39:52.130Z,20.60
2022-11-01T13:42:23.340Z,20.60
2022-11-01T13:45:13.416Z,20.50
2022-11-01T13:48:00.752Z,20.50
2022-11-01T13:50:42.600Z,20.50
2022-11-01T13:53:21.030Z,20.50
2022-11-01T13:56:13.921Z,20.50
2022-11-01T13:58:41.012Z,20.50
2022-11-01T14:01:37.399Z,20.50
2022-11-01T14:04:37.009Z,20.50
2022-11-01T14:07:15.718Z,20.50
2022-11-01T14:09:44.965Z,20.50
2022-11-01T14:12:34.085Z,20.50
2022-11-01T14:15:15.497Z,20.60
2022-11-01T14:17:57.667Z,20.60
2022-11-01T14:20:36.638Z,20.50
2022-11-01T14:23:27.988Z,20.50
2022-11-01T14:26:25.548Z,20.50
2022-11-01T14:28:55.379Z,20.50
2022-11-01T14:31:26.560Z,20.40
2022-11-01T14:33:58.913Z,20.40
2022-11-01T14:36:30.312Z,20.40
2022-11-01T14:39:21.612Z,20.30
2022-11-01T14:41:55.186Z,20.30
2022-11-01T14:44:39.885Z,20.30
2022-11-01T14:47:25.886Z,20.30
2022-11-01T14:49:57.020Z,20.30
2022-11-01T14:52:42.311Z,20.30
2022-11-01T14:55:20.696Z,20.20
2022-11-01T14:57:49.148Z,20.20
2022-11-01T15:00:33.934Z,20.10
2022-11-01T15:03:02.548Z,20.10
2022-11-01T15:05:29.603Z,20.00
2022-11-01T15:07:59.413Z,20.00
2022-11-01T15:10:27.727Z,20.00
2022-11-01T15:13:04.256Z,19.90
2022-11-01T15:15:37.549Z,20.00
2022-11-01T15:18:05.979Z,19.80
2022-11-01T15:20:38.783Z,19.80
2022-11-01T15:23:10.765Z,19.70
2022-11-01T15:25:40.743Z,19.60
2022-11-01T15:28:07.597Z,19.60
2022-11-01T15:30:34.956Z,19.50
2022-11-01T15:33:15.458Z,19.50
2022-11-01T15:35:42.784Z,19.60
2022-11-01T15:38:20.884Z,19.50
2022-11-01T15:40:50.499Z,19.50
2022-11-01T15:43:26.837Z,19.40
2022-11-01T15:45:58.983Z,19.30
2022-11-01T15:48:30.479Z,19.30
2022-11-01T15:51:01.296Z,19.30
2022-11-01T15:53:32.522Z,19.20
2022-11-01T15:56:08.580Z,19.30
2022-11-01T15:58:43.958Z,19.30
2022-11-01T16:01:16.098Z,19.20
2022-11-01T16:03:58.467Z,19.10
2022-11-01T16:06:36.392Z,19.20
2022-11-01T16:09:15.228Z,19.10
2022-11-01T16:11:42.190Z,19.00
2022-11-01T16:14:44.273Z,19.10
2022-11-01T16:17:33.199Z,19.00
2022-11-01T16:20:00.118Z,19.00
2022-11-01T16:22:42.002Z,18.90
2022-11-01T16:25:11.655Z,19.00
2022-11-01T16:28:02.787Z,18.90
2022-11-01T16:30:49.337Z,18.90
2022-11-01T16:33:27.688Z,18.90
2022-11-01T16:36:21.295Z,18.80
2022-11-01T16:38:55.031Z,18.80
2022-11-01T16:41:33.922Z,18.90
2022-11-01T16:44:14.342Z,18.80
2022-11-01T16:46:41.355Z,18.80
2022-11-01T16:49:22.745Z,18.80
2022-11-01T16:51:50.651Z,18.80
2022-11-01T16:54:17.488Z,18.90
2022-11-01T16:56:50.136Z,18.90
2022-11-01T16:59:26.628Z,18.90
2022-11-01T17:01:55.678Z,18.90
2022-11-01T17:04:22.937Z,18.70
2022-11-01T17:06:50.673Z,18.80
2022-11-01T17:09:19.638Z,18.80
2022-11-01T17:11:51.167Z,18.80
2022-11-01T17:14:19.407Z,18.70
2022-11-01T17:16:47.729Z,18.70
2022-11-01T17:19:31.341Z,18.70
2022-11-01T17:22:05.434Z,18.70
2022-11-01T17:24:33.501Z,18.70
2022-11-01T17:27:05.149Z,18.70
2022-11-01T17:29:32.887Z,18.70
2022-11-01T17:32:01.132Z,18.60
2022-11-01T17:34:28.914Z,18.60
2022-11-01T17:36:57.511Z,18.50
2022-11-01T17:39:28.114Z,18.60
2022-11-01T17:41:55.576Z,18.60
2022-11-01T17:44:23.200Z,18.50
2022-11-01T17:46:50.045Z,18.50
2022-11-01T17:49:17.016Z,18.60
2022-11-01T17:51:44.054Z,18.50
2022-11-01T17:54:10.859Z,18.50
2022-11-01T17:56:37.805Z,18.40
2022-11-01T17:59:04.701Z,18.50
2022-11-01T18:01:32.486Z,18.50
2022-11-01T18:03:59.422Z,18.50
2022-11-01T18:06:26.794Z,18.40
2022-11-01T18:08:54.119Z,18.50
2022-11-01T18:11:48.606Z,18.40
2022-11-01T18:14:24.605Z,18.50
2022-11-01T18:17:00.378Z,18.40
2022-11-01T18:19:45.853Z,18.40
2022-11-01T18:22:28.917Z,18.40
2022-11-01T18:25:12.761Z,18.50
2022-11-01T18:27:41.015Z,18.50
2022-11-01T18:30:19.143Z,18.50
2022-11-01T18:33:21.305Z,18.50
2022-11-01T18:36:08.168Z,18.50
2022-11-01T18:38:57.776Z,18.40
2022-11-01T18:41:25.304Z,18.40
2022-11-01T18:43:53.365Z,18.40
2022-11-01T18:46:27.041Z,18.40
2022-11-01T18:49:00.925Z,18.40
2022-11-01T18:51:34.548Z,18.40
2022-11-01T18:54:10.944Z,18.30
2022-11-01T18:56:43.415Z,18.30
2022-11-01T18:59:23.273Z,18.40
2022-11-01T19:02:13.523Z,18.30
2022-11-01T19:04:42.825Z,18.40
2022-11-01T19:07:14.146Z,18.30
2022-11-01T19:09:56.558Z,18.30
2022-11-01T19:12:29.598Z,18.20
2022-11-01T19:14:59.735Z,18.20
2022-11-01T19:17:29.490Z,18.20
2022-11-01T19:19:57.445Z,18.20
2022-11-01T19:22:40.567Z,18.20
2022-11-01T19:25:21.675Z,18.10
2022-11-01T19:27:50.611Z,18.10
2022-11-01T19:30:28.455Z,18.00
2022-11-01T19:33:08.734Z,18.00
2022-11-01T19:35:35.480Z,17.80
2022-11-01T19:38:02.491Z,18.00
2022-11-01T19:40:34.845Z,18.00
2022-11-01T19:43:20.344Z,17.90
2022-11-01T19:45:52.040Z,18.00
2022-11-01T19:48:26.995Z,17.90
2022-11-01T19:50:55.084Z,17.90
2022-11-01T19:53:33.861Z,17.90
2022-11-01T19:56:09.789Z,18.00
2022-11-01T19:58:42.314Z,18.00
2022-11-01T20:01:23.762Z,17.80
2022-11-01T20:03:57.284Z,17.90
2022-11-01T20:06:31.043Z,17.90
2022-11-01T20:09:18.240Z,17.90
2022-11-01T20:11:45.525Z,17.80
2022-11-01T20:14:14.142Z,17.70
2022-11-01T20:16:42.192Z,17.70
2022-11-01T20:19:13.205Z,17.60
2022-11-01T20:21:44.450Z,17.60
2022-11-01T20:24:12.375Z,17.40
2022-11-01T20:26:40.465Z,17.40
2022-11-01T20:29:08.429Z,17.40
2022-11-01T20:31:37.631Z,17.30
2022-11-01T20:34:05.876Z,17.30
2022-11-01T20:36:33.668Z,17.20
2022-11-01T20:39:01.521Z,17.20
2022-11-01T20:41:30.720Z,17.10
2022-11-01T20:43:58.847Z,17.20
2022-11-01T20:46:25.771Z,17.20
2022-11-01T20:48:53.517Z,17.10
2022-11-01T20:51:21.539Z,17.20
2022-11-01T20:53:49.566Z,17.10
2022-11-01T20:56:18.902Z,17.10
2022-11-01T20:58:48.096Z,17.10
2022-11-01T21:01:20.609Z,17.10
2022-11-01T21:03:49.950Z,17.00
2022-11-01T21:06:20.264Z,17.00
2022-11-01T21:08:49.287Z,16.90
2022-11-01T21:11:43.890Z,17.00
2022-11-01T21:14:16.656Z,17.00
2022-11-01T21:16:43.823Z,17.00
2022-11-01T21:19:24.162Z,16.90
2022-11-01T21:21:59.530Z,16.80
2022-11-01T21:24:34.514Z,16.90
2022-11-01T21:27:04.560Z,16.80
2022-11-01T21:29:31.421Z,16.80
2022-11-01T21:31:58.266Z,16.70
2022-11-01T21:34:28.413Z,16.80
2022-11-01T21:36:58.075Z,16.80
2022-11-01T21:39:33.105Z,16.60
2022-11-01T21:42:22.887Z,16.70
2022-11-01T21:44:49.898Z,16.70
2022-11-01T21:47:30.634Z,16.60
2022-11-01T21:49:57.478Z,16.60
2022-11-01T21:52:24.682Z,16.60
2022-11-01T21:54:52.748Z,16.60
2022-11-01T21:57:19.744Z,16.70
2022-11-01T21:59:46.670Z,16.70
2022-11-01T22:02:14.957Z,16.70
2022-11-01T22:04:42.273Z,16.80
2022-11-01T22:07:11.207Z,16.80
2022-11-01T22:09:38.261Z,16.90
2022-11-01T22:12:06.728Z,16.90
2022-11-01T22:14:33.680Z,16.90
2022-11-01T22:17:01.052Z,16.90
2022-11-01T22:19:27.929Z,16.80
2022-11-01T22:21:54.879Z,16.90
2022-11-01T22:24:21.750Z,16.70
2022-11-01T22:26:48.520Z,16.70
2022-11-01T22:29:15.370Z,16.70
2022-11-01T22:31:42.213Z,16.70
2022-11-01T22:34:08.992Z,16.70
2022-11-01T22:36:36.849Z,16.60
2022-11-01T22:39:23.520Z,16.70
2022-11-01T22:41:50.332Z,16.80
2022-11-01T22:44:20.254Z,16.80
2022-11-01T22:46:57.899Z,16.80
2022-11-01T22:49:30.643Z,16.80
2022-11-01T22:52:05.300Z,16.90
2022-11-01T22:54:47.396Z,16.80
2022-11-01T22:57:24.246Z,16.90
2022-11-01T22:59:53.795Z,16.70
2022-11-01T23:02:31.011Z,16.70
2022-11-01T23:05:06.794Z,16.70
2022-11-01T23:07:35.713Z,16.70
2022-11-01T23:10:21.253Z,16.70
2022-11-01T23:13:08.369Z,16.60
2022-11-01T23:15:35.357Z,16.60
2022-11-01T23:18:02.206Z,16.70
2022-11-01T23:20:29.914Z,16.70
2022-11-01T23:22:56.915Z,16.90
2022-11-01T23:25:26.392Z,16.80
2022-11-01T23:27:54.548Z,16.80
2022-11-01T23:30:22.505Z,16.80
2022-11-01T23:32:49.253Z,17.00
2022-11-01T23:35:20.387Z,16.90
2022-11-01T23:37:47.686Z,17.00
2022-11-01T23:40:17.384Z,17.00
2022-11-01T23:42:44.269Z,17.00
2022-11-01T23:45:46.574Z,17.00
2022-11-01T23:48:13.477Z,17.00
2022-11-01T23:50:40.392Z,17.00
2022-11-01T23:53:13.629Z,16.90
2022-11-01T23:55:48.390Z,17.00
2022-11-01T23:58:24.410Z,16.90
